Battletown, Kentucky
Current Conditions -  °F | °C
As of 4:58 AM on Friday 19 Dec 2014 (Local Time) from KFTK Reporting Station
Overcast Overcast  
Wind Chill: 31°   Ceiling: 7000
Heat Index: 31°   Visibility: 10mi
Dew Point: 26°   Wind: 3mph
Humidity: 83%   Direction: 340°NNW
Pressure: 30.23"   Gusts: NA
Location:  38.06°N, 86.29°W
Report Text: KFTK 190958Z AUTO 34003KT 10SM OVC070 M01/M03 A3023 RMK AO2 SLP247 T10081034
Loading
Personal Weather Stations






























Interactive Weather Map New forecast layout! Learn more

10-Day Weather Forecast

Advertisements
Track Severe Weather on mobile